Time;durP1;ratioP1;P1;durP2;ratioP2;P2;SDS_P1;SDS_P2;PMS_P1;PMS_P2;Temp;Humidity;BMP_temperature;BMP_pressure;BME280_temperature;BME280_humidity;BME280_pressure;Samples;Min_cycle;Max_cycle;Signal;HPM_P1;HPM_P2
2021/12/19 00:02:07;;;;;;;0.37;0.37;;;2.10;99.90;;;;;;5076009;28;20461;-82
2021/12/19 00:04:44;;;;;;;0.30;0.20;;;2.00;99.90;;;;;;5076103;28;20806;-82
2021/12/19 00:09:55;;;;;;;0.37;0.37;;;2.00;99.90;;;;;;5076103;28;20405;-82
2021/12/19 00:12:22;;;;;;;0.60;0.60;;;2.00;99.90;;;;;;5076138;28;20485;-82
2021/12/19 00:14:49;;;;;;;0.30;0.30;;;2.00;99.90;;;;;;5076190;28;20448;-81
2021/12/19 00:17:16;;;;;;;0.67;0.67;;;2.00;99.90;;;;;;5076202;28;20464;-82
2021/12/19 00:19:44;;;;;;;0.30;0.30;;;2.00;99.90;;;;;;5075853;28;20452;-82
2021/12/19 00:22:11;;;;;;;0.30;0.30;;;2.10;99.90;;;;;;5075830;28;20465;-82
2021/12/19 00:24:38;;;;;;;1.83;1.80;;;2.10;99.90;;;;;;5076671;28;20449;-82
2021/12/19 00:27:05;;;;;;;0.30;0.30;;;2.00;99.90;;;;;;5075949;28;20468;-82
2021/12/19 00:29:32;;;;;;;0.50;0.50;;;2.00;99.90;;;;;;5075927;28;20448;-82
2021/12/19 00:31:58;;;;;;;0.30;0.23;;;2.00;99.90;;;;;;5075740;28;20477;-82
2021/12/19 00:34:25;;;;;;;0.30;0.30;;;2.00;99.90;;;;;;5075625;28;20440;-82
2021/12/19 00:36:53;;;;;;;0.40;0.40;;;2.10;99.90;;;;;;5075365;28;20550;-82
2021/12/19 00:39:20;;;;;;;0.40;0.40;;;2.00;99.90;;;;;;5075737;28;20445;-82
2021/12/19 00:41:52;;;;;;;0.50;0.50;;;2.00;99.90;;;;;;5075403;28;20995;-82
2021/12/19 00:44:23;;;;;;;1.33;1.23;;;2.10;99.90;;;;;;5075554;28;20404;-82
2021/12/19 00:46:52;;;;;;;0.77;0.77;;;2.00;99.90;;;;;;5075980;28;20445;-82
2021/12/19 00:49:20;;;;;;;0.30;0.30;;;1.90;99.90;;;;;;5075184;28;20460;-82
2021/12/19 00:51:47;;;;;;;0.30;0.30;;;2.00;99.90;;;;;;5075122;28;20481;-82
2021/12/19 00:54:15;;;;;;;0.80;0.80;;;2.00;99.90;;;;;;5075466;28;20449;-82
2021/12/19 00:56:44;;;;;;;0.40;0.40;;;2.00;99.90;;;;;;5078920;28;20460;-82
2021/12/19 00:59:12;;;;;;;0.40;0.40;;;1.90;99.90;;;;;;5075675;28;20448;-82
2021/12/19 01:01:39;;;;;;;1.60;0.97;;;2.00;99.90;;;;;;5074890;28;20469;-82
2021/12/19 01:04:10;;;;;;;0.97;0.97;;;2.00;99.90;;;;;;5075284;28;20453;-82
2021/12/19 01:06:37;;;;;;;0.43;0.43;;;1.90;99.90;;;;;;5075339;28;20444;-82
2021/12/19 01:09:05;;;;;;;0.93;0.93;;;1.90;99.90;;;;;;5074882;28;20993;-82
2021/12/19 01:11:34;;;;;;;1.03;1.03;;;2.00;99.90;;;;;;5074688;28;20464;-82
2021/12/19 01:14:01;;;;;;;1.80;0.60;;;1.90;99.90;;;;;;5075089;28;20453;-82
2021/12/19 01:16:28;;;;;;;0.40;0.40;;;1.90;99.90;;;;;;5075030;28;20449;-82
2021/12/19 01:18:55;;;;;;;0.33;0.33;;;1.90;99.90;;;;;;5074978;28;20451;-82
2021/12/19 01:21:22;;;;;;;0.50;0.50;;;2.00;99.90;;;;;;5074810;28;20468;-82
2021/12/19 01:23:49;;;;;;;0.90;0.90;;;1.90;99.90;;;;;;5074652;28;20441;-82
2021/12/19 01:26:16;;;;;;;0.97;0.97;;;1.80;99.90;;;;;;5074865;28;20445;-82
2021/12/19 01:28:44;;;;;;;0.30;0.30;;;1.90;99.90;;;;;;5075339;28;20452;-82
2021/12/19 01:31:12;;;;;;;0.63;0.63;;;1.90;99.90;;;;;;5075009;28;20468;-82
2021/12/19 01:33:39;;;;;;;0.40;0.40;;;1.90;99.90;;;;;;5074627;28;20480;-82
2021/12/19 01:36:06;;;;;;;0.30;0.30;;;1.90;99.90;;;;;;5074221;28;20481;-82
2021/12/19 01:38:33;;;;;;;0.30;0.30;;;1.90;99.90;;;;;;5074602;28;20519;-81
2021/12/19 01:41:00;;;;;;;0.30;0.30;;;1.80;99.90;;;;;;5074388;28;20464;-82
2021/12/19 01:43:27;;;;;;;0.30;0.30;;;1.80;99.90;;;;;;5074406;28;20804;-82
2021/12/19 01:45:56;;;;;;;1.43;1.43;;;1.70;99.90;;;;;;5074078;28;20963;-82
2021/12/19 01:48:24;;;;;;;0.53;0.53;;;1.70;99.90;;;;;;5074377;28;20456;-82
2021/12/19 01:50:52;;;;;;;2.10;2.00;;;1.70;99.90;;;;;;5074319;28;20476;-82
2021/12/19 01:53:19;;;;;;;0.60;0.60;;;1.70;99.90;;;;;;5074016;28;21002;-82
2021/12/19 01:55:48;;;;;;;0.30;0.30;;;1.70;99.90;;;;;;5074035;28;20433;-82
2021/12/19 01:58:16;;;;;;;0.40;0.40;;;1.70;99.90;;;;;;5074045;28;20460;-82
2021/12/19 02:00:45;;;;;;;0.30;0.30;;;1.70;99.90;;;;;;5074756;28;20441;-82
2021/12/19 02:03:13;;;;;;;0.50;0.50;;;1.70;99.90;;;;;;5074531;28;20452;-82
2021/12/19 02:05:41;;;;;;;0.90;0.90;;;1.60;99.90;;;;;;5073717;28;20956;-82
2021/12/19 02:08:09;;;;;;;0.30;0.30;;;1.60;99.90;;;;;;5074042;28;20445;-82
2021/12/19 02:10:37;;;;;;;0.33;0.33;;;1.50;99.90;;;;;;5073918;28;20520;-82
2021/12/19 02:13:06;;;;;;;0.30;0.30;;;1.40;99.90;;;;;;5073396;28;20987;-82
2021/12/19 02:15:34;;;;;;;0.60;0.60;;;1.50;99.90;;;;;;5073247;28;20445;-82
2021/12/19 02:18:04;;;;;;;0.30;0.30;;;1.50;99.90;;;;;;5073679;28;20795;-82
2021/12/19 02:20:35;;;;;;;0.67;0.67;;;1.50;99.90;;;;;;5073493;28;20440;-82
2021/12/19 02:23:01;;;;;;;0.30;0.30;;;1.50;99.90;;;;;;5073799;28;20425;-82
2021/12/19 02:25:28;;;;;;;0.40;0.40;;;1.50;99.90;;;;;;5073736;28;20452;-82
2021/12/19 02:27:55;;;;;;;0.70;0.70;;;1.50;99.90;;;;;;5073762;28;20452;-82
2021/12/19 02:30:22;;;;;;;0.30;0.30;;;1.60;99.90;;;;;;5073391;28;20453;-82
2021/12/19 02:32:49;;;;;;;1.77;1.67;;;1.60;99.90;;;;;;5073515;28;20491;-81
2021/12/19 02:35:21;;;;;;;0.87;0.87;;;1.50;99.90;;;;;;5073377;28;20473;-82
2021/12/19 02:38:16;;;;;;;0.93;0.53;;;1.50;99.90;;;;;;5073613;28;20503;-82
2021/12/19 02:48:56;;;;;;;0.50;0.50;;;1.50;99.90;;;;;;5073530;28;20397;-82
2021/12/19 02:51:24;;;;;;;0.30;0.30;;;1.40;99.90;;;;;;5073022;28;20476;-82
2021/12/19 02:53:52;;;;;;;0.30;0.30;;;1.40;99.90;;;;;;5073095;28;20484;-82
2021/12/19 02:56:20;;;;;;;0.30;0.30;;;1.30;99.90;;;;;;5073122;28;20484;-82
2021/12/19 02:58:47;;;;;;;0.40;0.40;;;1.30;99.90;;;;;;5073066;28;20488;-82
2021/12/19 03:01:17;;;;;;;0.30;0.30;;;1.30;99.90;;;;;;5073182;28;20453;-82
2021/12/19 03:03:44;;;;;;;0.43;0.43;;;1.30;99.90;;;;;;5073344;28;20448;-82
2021/12/19 03:06:11;;;;;;;1.10;0.97;;;1.30;99.90;;;;;;5073267;28;20803;-82
2021/12/19 03:08:43;;;;;;;0.67;0.67;;;1.20;99.90;;;;;;5073313;28;20468;-82
2021/12/19 03:19:21;;;;;;;0.30;0.27;;;1.30;99.90;;;;;;5073273;28;20404;-82
2021/12/19 03:21:48;;;;;;;0.30;0.30;;;1.30;99.90;;;;;;5072950;28;20460;-82
2021/12/19 03:24:15;;;;;;;0.30;0.30;;;1.30;99.90;;;;;;5072757;28;20449;-82
2021/12/19 03:26:43;;;;;;;0.30;0.30;;;1.30;99.90;;;;;;5076267;28;20445;-82
2021/12/19 03:29:10;;;;;;;0.50;0.50;;;1.30;99.90;;;;;;5076849;28;20412;-82
2021/12/19 03:31:37;;;;;;;0.43;0.43;;;1.30;99.90;;;;;;5076917;28;20472;-82
2021/12/19 03:34:04;;;;;;;0.40;0.40;;;1.30;99.90;;;;;;5076658;28;20464;-82
2021/12/19 03:36:31;;;;;;;0.50;0.50;;;1.40;99.90;;;;;;5076543;28;20489;-82
2021/12/19 03:39:01;;;;;;;0.30;0.30;;;1.40;99.90;;;;;;5076821;28;20416;-82
2021/12/19 03:41:33;;;;;;;1.43;0.70;;;1.40;99.90;;;;;;5076751;28;20973;-82
2021/12/19 03:44:03;;;;;;;0.30;0.30;;;1.30;99.90;;;;;;5076806;28;20429;-82
2021/12/19 03:46:30;;;;;;;0.93;0.93;;;1.30;99.90;;;;;;5076799;28;20451;-82
2021/12/19 03:48:56;;;;;;;0.30;0.20;;;1.30;99.90;;;;;;5076754;28;20445;-82
2021/12/19 03:51:24;;;;;;;0.87;0.60;;;1.40;99.90;;;;;;5076525;28;20469;-82
2021/12/19 03:53:50;;;;;;;0.40;0.40;;;1.30;99.90;;;;;;5076491;28;20572;-82
2021/12/19 03:56:17;;;;;;;0.30;0.30;;;1.30;99.90;;;;;;5076163;28;20930;-82
2021/12/19 03:58:44;;;;;;;1.03;1.03;;;1.20;99.90;;;;;;5076482;28;20444;-82
2021/12/19 04:01:12;;;;;;;4.70;1.27;;;1.20;99.90;;;;;;5076006;28;20850;-82
2021/12/19 04:03:40;;;;;;;0.30;0.30;;;1.20;99.90;;;;;;5076440;28;20444;-82
2021/12/19 04:06:07;;;;;;;0.40;0.40;;;1.20;99.90;;;;;;5076372;28;20455;-82
2021/12/19 04:08:34;;;;;;;0.30;0.30;;;1.20;99.90;;;;;;5076240;28;20446;-82
2021/12/19 04:11:01;;;;;;;1.00;0.53;;;1.20;99.90;;;;;;5076164;28;20480;-82
2021/12/19 04:13:27;;;;;;;0.30;0.30;;;1.20;99.90;;;;;;5075915;28;20485;-82
2021/12/19 04:15:54;;;;;;;0.30;0.30;;;1.20;99.90;;;;;;5076185;28;20444;-82
2021/12/19 04:18:22;;;;;;;0.50;0.50;;;1.20;99.90;;;;;;5075858;28;20963;-82
2021/12/19 04:20:49;;;;;;;0.30;0.30;;;1.20;99.90;;;;;;5076051;28;20472;-82
2021/12/19 04:23:16;;;;;;;0.40;0.40;;;1.20;99.90;;;;;;5075766;28;20494;-82
2021/12/19 04:25:44;;;;;;;0.40;0.40;;;1.20;99.90;;;;;;5076028;28;20457;-82
2021/12/19 04:28:11;;;;;;;0.30;0.20;;;1.20;99.90;;;;;;5075972;28;20484;-82
2021/12/19 04:30:37;;;;;;;0.30;0.30;;;1.20;99.90;;;;;;5075577;28;20433;-82
2021/12/19 04:33:08;;;;;;;0.30;0.30;;;1.10;99.90;;;;;;5075506;28;20844;-82
2021/12/19 04:35:39;;;;;;;0.67;0.67;;;1.10;99.90;;;;;;5075612;28;20500;-82
2021/12/19 04:41:41;;;;;;;0.73;0.73;;;1.10;99.90;;;;;;5075662;28;20528;-82
2021/12/19 04:55:40;;;;;;;0.30;0.30;;;1.00;99.90;;;;;;5067732;28;20520;-82
2021/12/19 04:58:22;;;;;;;0.87;0.73;;;1.00;99.90;;;;;;5075100;28;20925;-82
2021/12/19 05:00:59;;;;;;;0.30;0.30;;;1.00;99.90;;;;;;5074980;28;22277;-82
2021/12/19 05:03:35;;;;;;;0.30;0.30;;;1.00;99.90;;;;;;5075294;28;20433;-82
2021/12/19 05:06:08;;;;;;;0.53;0.53;;;0.90;99.90;;;;;;5075240;28;20434;-83
2021/12/19 05:14:10;;;;;;;0.30;0.30;;;1.00;99.90;;;;;;5074758;28;20456;-82
2021/12/19 05:16:41;;;;;;;0.30;0.30;;;1.00;99.90;;;;;;5075068;28;20433;-82
2021/12/19 05:19:19;;;;;;;0.30;0.30;;;1.00;99.90;;;;;;5075024;28;20515;-82
2021/12/19 05:21:46;;;;;;;0.30;0.30;;;1.00;99.90;;;;;;5075388;28;20585;-82
2021/12/19 05:24:32;;;;;;;0.30;0.30;;;1.10;99.90;;;;;;5074847;28;20451;-82
2021/12/19 05:26:59;;;;;;;0.30;0.30;;;1.10;99.90;;;;;;5074779;28;20441;-82
2021/12/19 05:29:26;;;;;;;0.30;0.30;;;1.10;99.90;;;;;;5074837;28;20460;-82
2021/12/19 05:31:53;;;;;;;0.50;0.47;;;1.10;99.90;;;;;;5074362;28;20473;-83
2021/12/19 05:34:19;;;;;;;0.30;0.30;;;1.10;99.90;;;;;;5074405;28;20477;-82
2021/12/19 05:45:13;;;;;;;0.30;0.30;;;1.10;99.90;;;;;;5074527;28;20393;-82
2021/12/19 05:47:39;;;;;;;1.03;0.40;;;1.10;99.90;;;;;;5074427;28;20831;-83
2021/12/19 05:50:07;;;;;;;0.30;0.30;;;1.10;99.90;;;;;;5074255;28;20793;-83
2021/12/19 05:52:34;;;;;;;0.63;0.63;;;1.10;99.90;;;;;;5074207;28;20469;-83
2021/12/19 05:55:02;;;;;;;0.30;0.30;;;1.10;99.90;;;;;;5073902;28;20480;-82
2021/12/19 05:57:29;;;;;;;0.30;0.30;;;1.10;99.90;;;;;;5073942;28;20433;-83
2021/12/19 05:59:56;;;;;;;0.30;0.30;;;1.10;99.90;;;;;;5074164;28;20453;-83
2021/12/19 06:02:22;;;;;;;0.33;0.33;;;1.10;99.90;;;;;;5075485;28;20484;-83
2021/12/19 06:04:49;;;;;;;0.30;0.20;;;1.10;99.90;;;;;;5074706;28;20444;-82
2021/12/19 06:07:16;;;;;;;0.50;0.50;;;1.10;99.90;;;;;;5074487;28;20449;-83
2021/12/19 06:09:42;;;;;;;0.73;0.73;;;1.10;99.90;;;;;;5074055;28;20432;-83
2021/12/19 06:12:11;;;;;;;0.30;0.30;;;1.10;99.90;;;;;;5073857;28;20473;-82
2021/12/19 06:14:37;;;;;;;0.70;0.70;;;1.20;99.90;;;;;;5074069;28;20469;-83
2021/12/19 06:17:05;;;;;;;0.30;0.30;;;1.20;99.90;;;;;;5073917;28;20444;-83
2021/12/19 06:19:36;;;;;;;0.40;0.40;;;1.20;99.90;;;;;;5073927;28;20451;-83
2021/12/19 06:22:04;;;;;;;0.50;0.50;;;1.20;99.90;;;;;;5074557;28;20480;-83
2021/12/19 06:24:31;;;;;;;0.40;0.40;;;1.10;99.90;;;;;;5073869;28;20783;-83
2021/12/19 06:26:58;;;;;;;0.30;0.30;;;1.10;99.90;;;;;;5073748;28;20449;-83
2021/12/19 06:29:27;;;;;;;0.40;0.40;;;1.10;99.90;;;;;;5073745;28;20449;-83
2021/12/19 06:31:54;;;;;;;0.50;0.50;;;1.10;99.90;;;;;;5073662;28;20477;-83
2021/12/19 06:34:20;;;;;;;0.30;0.30;;;1.10;99.90;;;;;;5073296;28;20481;-83
2021/12/19 06:36:47;;;;;;;0.30;0.30;;;1.10;99.90;;;;;;5073239;28;20505;-82
2021/12/19 06:39:14;;;;;;;0.60;0.60;;;1.10;99.90;;;;;;5073754;28;20449;-84
2021/12/19 06:41:41;;;;;;;0.30;0.30;;;1.10;99.90;;;;;;5073450;28;20461;-84
2021/12/19 06:44:08;;;;;;;0.30;0.30;;;1.00;99.90;;;;;;5074195;28;20464;-83
2021/12/19 06:46:36;;;;;;;0.50;0.50;;;1.00;99.90;;;;;;5073597;28;20445;-82
2021/12/19 06:49:03;;;;;;;0.40;0.40;;;1.10;99.90;;;;;;5073591;28;20924;-82
2021/12/19 06:51:31;;;;;;;0.30;0.30;;;1.10;99.90;;;;;;5073357;28;20473;-83
2021/12/19 06:53:58;;;;;;;0.30;0.30;;;1.10;99.90;;;;;;5073389;28;20914;-83
2021/12/19 06:56:25;;;;;;;0.50;0.50;;;1.00;99.90;;;;;;5073476;28;20459;-83
2021/12/19 06:58:52;;;;;;;0.30;0.30;;;1.10;99.90;;;;;;5073133;28;20943;-82
2021/12/19 07:01:19;;;;;;;1.87;1.70;;;1.10;99.90;;;;;;5072796;28;20479;-83
2021/12/19 07:03:47;;;;;;;0.30;0.30;;;1.00;99.90;;;;;;5073268;28;20458;-78
2021/12/19 07:06:14;;;;;;;0.60;0.60;;;1.00;99.90;;;;;;5073282;28;20445;-78
2021/12/19 07:08:40;;;;;;;0.30;0.30;;;1.00;99.90;;;;;;5072987;28;20437;-77
2021/12/19 07:11:07;;;;;;;0.30;0.20;;;1.00;99.90;;;;;;5073114;28;20472;-78
2021/12/19 07:13:34;;;;;;;0.30;0.30;;;1.00;99.90;;;;;;5073513;28;20487;-86
2021/12/19 07:16:01;;;;;;;0.43;0.43;;;1.00;99.90;;;;;;5073501;28;20419;-85
2021/12/19 07:18:28;;;;;;;0.30;0.30;;;1.00;99.90;;;;;;5073722;28;20532;-85
2021/12/19 07:20:56;;;;;;;0.30;0.30;;;0.90;99.90;;;;;;5072888;28;20453;-78
2021/12/19 07:23:23;;;;;;;0.70;0.70;;;0.90;99.90;;;;;;5073077;28;20437;-78
2021/12/19 07:25:50;;;;;;;0.87;0.87;;;0.90;99.90;;;;;;5073085;28;20443;-77
2021/12/19 07:28:17;;;;;;;0.50;0.50;;;0.90;99.90;;;;;;5073017;28;20427;-78
2021/12/19 07:30:44;;;;;;;0.30;0.30;;;0.90;99.90;;;;;;5072961;28;20448;-78
2021/12/19 07:33:12;;;;;;;0.90;0.90;;;0.90;99.90;;;;;;5072795;28;20429;-78
2021/12/19 07:35:42;;;;;;;0.30;0.30;;;0.90;99.90;;;;;;5072685;28;20488;-77
2021/12/19 07:38:15;;;;;;;0.30;0.30;;;0.90;99.90;;;;;;5072951;28;20440;-79
2021/12/19 07:40:46;;;;;;;0.30;0.30;;;1.00;99.90;;;;;;5072948;28;20445;-77
2021/12/19 07:43:13;;;;;;;1.60;0.40;;;1.00;99.90;;;;;;5073050;28;20445;-83
2021/12/19 07:45:41;;;;;;;3.90;0.53;;;1.00;99.90;;;;;;5073057;28;20444;-83
2021/12/19 07:48:07;;;;;;;0.30;0.20;;;1.00;99.90;;;;;;5072933;28;20508;-83
2021/12/19 07:50:34;;;;;;;0.30;0.30;;;1.10;99.90;;;;;;5073101;28;20451;-86
2021/12/19 07:53:03;;;;;;;0.30;0.30;;;1.10;99.90;;;;;;5073344;28;20455;-86
2021/12/19 07:55:31;;;;;;;0.40;0.37;;;1.00;99.90;;;;;;5073145;28;20477;-85
2021/12/19 07:57:58;;;;;;;0.30;0.30;;;1.00;99.90;;;;;;5073224;28;20459;-86
2021/12/19 08:00:25;;;;;;;0.30;0.30;;;0.90;99.90;;;;;;5073005;28;20444;-86
2021/12/19 08:02:52;;;;;;;0.40;0.40;;;0.90;99.90;;;;;;5072789;28;20461;-86
2021/12/19 08:05:21;;;;;;;0.30;0.30;;;0.80;99.90;;;;;;5073184;28;20436;-86
2021/12/19 08:07:54;;;;;;;0.40;0.40;;;0.80;99.90;;;;;;5073133;28;20449;-86
2021/12/19 08:13:07;;;;;;;0.30;0.30;;;0.80;99.90;;;;;;5053752;28;20474;-86
2021/12/19 08:15:36;;;;;;;0.30;0.30;;;0.90;99.90;;;;;;5076270;28;20477;-86
2021/12/19 08:18:09;;;;;;;0.57;0.57;;;0.90;99.90;;;;;;5076174;28;20456;-85
2021/12/19 08:24:10;;;;;;;0.30;0.30;;;1.10;99.90;;;;;;5076206;28;20471;-85
2021/12/19 08:26:39;;;;;;;0.37;0.37;;;1.10;99.90;;;;;;5075040;28;20445;-85
2021/12/19 08:29:08;;;;;;;0.30;0.30;;;1.10;99.90;;;;;;5076305;28;20403;-85
2021/12/19 08:31:41;;;;;;;0.60;0.40;;;1.10;99.90;;;;;;5076185;28;20461;-85
2021/12/19 08:34:16;;;;;;;0.30;0.30;;;1.10;99.90;;;;;;5075788;28;20529;-85
2021/12/19 08:36:52;;;;;;;0.30;0.30;;;1.20;99.90;;;;;;5075833;28;20465;-84
2021/12/19 08:39:19;;;;;;;0.30;0.30;;;1.20;99.90;;;;;;5076011;28;20428;-85
2021/12/19 08:41:52;;;;;;;0.30;0.30;;;1.10;99.90;;;;;;5076049;28;20480;-84
2021/12/19 08:44:24;;;;;;;0.30;0.30;;;1.10;99.90;;;;;;5075928;28;20417;-84
2021/12/19 08:46:51;;;;;;;0.30;0.20;;;1.20;99.90;;;;;;5075551;28;20975;-85
2021/12/19 08:49:18;;;;;;;0.30;0.30;;;1.20;99.90;;;;;;5075823;28;20453;-84
2021/12/19 08:51:47;;;;;;;0.30;0.30;;;1.30;99.90;;;;;;5075807;28;20469;-86
2021/12/19 08:54:13;;;;;;;0.37;0.37;;;1.30;99.90;;;;;;5075837;28;21008;-85
2021/12/19 08:56:40;;;;;;;0.30;0.30;;;1.30;99.90;;;;;;5075545;28;20456;-85
2021/12/19 08:59:07;;;;;;;0.40;0.40;;;1.30;99.90;;;;;;5075612;28;20452;-85
2021/12/19 09:01:36;;;;;;;0.30;0.30;;;1.30;99.90;;;;;;5075564;28;20556;-85
2021/12/19 09:04:03;;;;;;;0.30;0.30;;;1.30;99.90;;;;;;5075788;28;20441;-85
2021/12/19 09:06:30;;;;;;;0.30;0.30;;;1.30;99.90;;;;;;5075637;28;20409;-83
2021/12/19 09:08:56;;;;;;;0.50;0.50;;;1.40;99.90;;;;;;5075367;28;20412;-86
2021/12/19 09:11:23;;;;;;;0.30;0.30;;;1.40;99.90;;;;;;5075387;28;20473;-86
2021/12/19 09:13:50;;;;;;;0.30;0.30;;;1.40;99.90;;;;;;5075369;28;20449;-85
2021/12/19 09:16:17;;;;;;;0.30;0.20;;;1.50;99.90;;;;;;5075409;28;20449;-85
2021/12/19 09:18:45;;;;;;;0.30;0.30;;;1.50;99.90;;;;;;5075370;28;20452;-85
2021/12/19 09:21:12;;;;;;;0.40;0.40;;;1.50;99.90;;;;;;5075012;28;20453;-85
2021/12/19 09:23:39;;;;;;;0.30;0.30;;;1.50;99.90;;;;;;5074579;28;20967;-85
2021/12/19 09:26:07;;;;;;;0.30;0.30;;;1.50;99.90;;;;;;5075368;28;20440;-85
2021/12/19 09:28:34;;;;;;;0.30;0.30;;;1.50;99.90;;;;;;5075143;28;20459;-85
2021/12/19 09:31:01;;;;;;;0.30;0.20;;;1.60;99.90;;;;;;5074954;28;20477;-85
2021/12/19 09:33:27;;;;;;;0.30;0.20;;;1.60;99.90;;;;;;5075036;28;20452;-85
2021/12/19 09:35:57;;;;;;;0.30;0.30;;;1.50;99.90;;;;;;5074472;28;20485;-85
2021/12/19 09:38:24;;;;;;;0.40;0.40;;;1.40;99.90;;;;;;5075091;28;20790;-85
2021/12/19 09:40:59;;;;;;;1.13;0.53;;;1.40;99.90;;;;;;5074528;28;20468;-85
2021/12/19 09:43:44;;;;;;;0.30;0.30;;;1.50;99.90;;;;;;5074738;28;20503;-85
2021/12/19 09:46:13;;;;;;;0.30;0.20;;;1.60;99.90;;;;;;5074746;28;20437;-86
2021/12/19 09:48:41;;;;;;;0.30;0.30;;;1.60;99.90;;;;;;5074887;28;20936;-86
2021/12/19 09:51:10;;;;;;;0.30;0.30;;;1.70;99.90;;;;;;5076728;28;20461;-86
2021/12/19 09:53:38;;;;;;;0.30;0.30;;;1.80;99.90;;;;;;5074674;28;20441;-85
2021/12/19 09:56:05;;;;;;;0.40;0.40;;;1.80;99.90;;;;;;5074418;28;20859;-85
2021/12/19 09:58:35;;;;;;;0.30;0.30;;;1.80;99.90;;;;;;5074737;28;20433;-86
2021/12/19 10:01:05;;;;;;;0.30;0.30;;;1.80;99.90;;;;;;5074605;28;20469;-86
2021/12/19 10:03:32;;;;;;;1.93;0.50;;;1.90;99.90;;;;;;5074680;28;20447;-85
2021/12/19 10:06:21;;;;;;;0.30;0.20;;;1.90;99.90;;;;;;5074467;28;20440;-85
2021/12/19 10:09:07;;;;;;;0.30;0.30;;;1.90;99.90;;;;;;5074371;28;20433;-85
2021/12/19 10:11:47;;;;;;;0.30;0.30;;;1.80;99.90;;;;;;5074376;28;20473;-86
2021/12/19 10:14:28;;;;;;;0.30;0.30;;;1.90;99.90;;;;;;5074307;28;20455;-85
2021/12/19 10:16:55;;;;;;;0.30;0.20;;;1.80;99.90;;;;;;5073917;28;20433;-85
2021/12/19 10:19:22;;;;;;;1.13;0.50;;;1.80;99.90;;;;;;5074200;28;20451;-85
2021/12/19 10:21:50;;;;;;;0.30;0.30;;;1.70;99.90;;;;;;5073735;28;20453;-82
2021/12/19 10:24:31;;;;;;;0.30;0.30;;;1.70;99.90;;;;;;5074161;28;20444;-85
2021/12/19 10:26:58;;;;;;;0.30;0.30;;;1.80;99.90;;;;;;5073672;28;20449;-85
2021/12/19 10:29:43;;;;;;;0.30;0.27;;;1.80;99.90;;;;;;5074078;28;20453;-84
2021/12/19 10:32:10;;;;;;;0.30;0.20;;;1.90;99.90;;;;;;5073776;28;20457;-85
2021/12/19 10:34:37;;;;;;;0.30;0.20;;;1.90;99.90;;;;;;5073094;28;20991;-85
2021/12/19 10:37:06;;;;;;;0.30;0.30;;;1.90;99.90;;;;;;5073303;28;20484;-85
2021/12/19 10:39:41;;;;;;;0.50;0.50;;;1.90;99.90;;;;;;5073570;28;20429;-85
2021/12/19 10:42:11;;;;;;;0.30;0.30;;;2.00;99.90;;;;;;5073697;28;20460;-85
2021/12/19 10:47:33;;;;;;;0.30;0.20;;;2.00;99.90;;;;;;5049156;28;20985;-85
2021/12/19 10:49:59;;;;;;;0.30;0.30;;;2.00;99.90;;;;;;5073842;28;20448;-85
2021/12/19 10:52:38;;;;;;;0.30;0.30;;;2.10;99.90;;;;;;5073517;28;20975;-85
2021/12/19 10:55:09;;;;;;;0.40;0.30;;;2.20;99.90;;;;;;5073773;28;20477;-84
2021/12/19 10:57:38;;;;;;;0.30;0.20;;;2.20;99.90;;;;;;5074140;28;20429;-85
2021/12/19 11:00:10;;;;;;;0.30;0.30;;;2.20;99.90;;;;;;5073722;28;20460;-85
2021/12/19 11:02:41;;;;;;;0.30;0.30;;;2.20;99.90;;;;;;5072715;28;20846;-85
2021/12/19 11:05:35;;;;;;;0.30;0.30;;;2.20;99.90;;;;;;5073621;28;20430;-85
2021/12/19 11:08:05;;;;;;;1.17;1.17;;;2.20;99.90;;;;;;5073685;28;20916;-85
2021/12/19 11:10:34;;;;;;;0.30;0.30;;;2.20;99.90;;;;;;5073246;28;20440;-85
2021/12/19 11:13:09;;;;;;;0.30;0.27;;;2.20;99.90;;;;;;5073717;28;20449;-85
2021/12/19 11:15:36;;;;;;;0.30;0.30;;;2.20;99.90;;;;;;5073159;28;20480;-85
2021/12/19 11:18:03;;;;;;;0.30;0.27;;;2.10;99.90;;;;;;5073878;28;20456;-82
2021/12/19 11:20:30;;;;;;;0.30;0.20;;;2.10;99.90;;;;;;5073336;28;20433;-85
2021/12/19 11:22:57;;;;;;;0.30;0.30;;;2.10;99.90;;;;;;5073482;28;20457;-85
2021/12/19 11:25:26;;;;;;;0.30;0.20;;;2.20;99.90;;;;;;5073066;28;20441;-85
2021/12/19 11:27:54;;;;;;;0.40;0.40;;;2.30;99.90;;;;;;5073539;28;20449;-85
2021/12/19 11:30:21;;;;;;;0.30;0.30;;;2.30;99.90;;;;;;5073489;28;20437;-85
2021/12/19 11:32:59;;;;;;;0.33;0.33;;;2.40;99.90;;;;;;5073322;28;20480;-85
2021/12/19 11:35:29;;;;;;;2.20;0.47;;;2.30;99.90;;;;;;5073129;28;20539;-85
2021/12/19 11:37:59;;;;;;;0.37;0.37;;;2.40;99.90;;;;;;5073295;28;20782;-85
2021/12/19 11:40:31;;;;;;;0.30;0.30;;;2.40;99.90;;;;;;5073209;28;20410;-85
2021/12/19 11:43:02;;;;;;;0.30;0.30;;;2.40;99.90;;;;;;5073433;28;20444;-85
2021/12/19 11:45:33;;;;;;;0.40;0.40;;;2.40;99.90;;;;;;5074114;28;20441;-85
2021/12/19 11:48:07;;;;;;;6.60;0.53;;;2.40;99.90;;;;;;5076918;28;20847;-84
2021/12/19 11:50:36;;;;;;;0.50;0.50;;;2.40;99.90;;;;;;5077452;28;20433;-85
2021/12/19 11:53:22;;;;;;;0.30;0.30;;;2.40;99.90;;;;;;5076709;28;20456;-85
2021/12/19 11:55:52;;;;;;;0.30;0.27;;;2.30;99.90;;;;;;5076644;28;20867;-85
2021/12/19 11:58:22;;;;;;;0.30;0.30;;;2.20;99.90;;;;;;5076531;28;20449;-85
2021/12/19 12:01:02;;;;;;;0.30;0.20;;;2.20;99.90;;;;;;5076384;28;20918;-85
2021/12/19 12:03:48;;;;;;;0.60;0.60;;;2.20;99.90;;;;;;5076653;28;20880;-85
2021/12/19 12:06:35;;;;;;;0.57;0.57;;;2.30;99.90;;;;;;5076172;28;20822;-85
2021/12/19 12:09:28;;;;;;;0.30;0.30;;;2.30;99.90;;;;;;5076626;28;20428;-85
2021/12/19 12:12:19;;;;;;;0.50;0.50;;;2.30;99.90;;;;;;5076572;28;20465;-85
2021/12/19 12:14:56;;;;;;;4.10;0.50;;;2.30;99.90;;;;;;5076687;28;20491;-85
2021/12/19 12:17:29;;;;;;;0.30;0.30;;;2.40;99.90;;;;;;5076401;28;20436;-85
2021/12/19 12:20:00;;;;;;;0.30;0.30;;;2.40;99.90;;;;;;5077032;28;20444;-85
2021/12/19 12:22:33;;;;;;;0.30;0.30;;;2.40;99.90;;;;;;5076421;28;20465;-85
2021/12/19 12:25:17;;;;;;;0.30;0.30;;;2.40;99.90;;;;;;5076466;28;20487;-85
2021/12/19 12:27:50;;;;;;;0.30;0.30;;;2.40;99.90;;;;;;5076259;28;20919;-85
2021/12/19 12:30:19;;;;;;;0.30;0.30;;;2.30;99.90;;;;;;5076391;28;20429;-85
2021/12/19 12:32:46;;;;;;;0.60;0.60;;;2.30;99.90;;;;;;5076224;28;20453;-85
2021/12/19 12:35:14;;;;;;;0.30;0.30;;;2.30;99.90;;;;;;5075677;28;20512;-84
2021/12/19 12:37:42;;;;;;;0.30;0.30;;;2.30;99.90;;;;;;5075935;28;20448;-85
2021/12/19 12:40:29;;;;;;;0.30;0.30;;;2.20;99.90;;;;;;5075600;28;20452;-85
2021/12/19 12:43:09;;;;;;;0.30;0.30;;;2.30;99.90;;;;;;5075904;28;20445;-85
2021/12/19 12:45:57;;;;;;;0.30;0.20;;;2.20;99.90;;;;;;5075986;28;20436;-84
2021/12/19 12:48:32;;;;;;;0.50;0.40;;;2.30;99.90;;;;;;5075899;28;20508;-85
2021/12/19 12:51:00;;;;;;;0.63;0.50;;;2.30;99.90;;;;;;5075638;28;20464;-85
2021/12/19 12:53:32;;;;;;;0.30;0.30;;;2.30;99.90;;;;;;5075768;28;20452;-85
2021/12/19 12:56:11;;;;;;;0.40;0.40;;;2.30;99.90;;;;;;5075617;28;20488;-84
2021/12/19 12:58:43;;;;;;;0.30;0.30;;;2.30;99.90;;;;;;5074759;28;20805;-85
2021/12/19 13:01:24;;;;;;;0.30;0.30;;;2.30;99.90;;;;;;5075472;28;20473;-85
2021/12/19 13:04:04;;;;;;;0.30;0.30;;;2.20;99.90;;;;;;5075638;28;20433;-85
2021/12/19 13:07:02;;;;;;;0.30;0.30;;;2.10;99.90;;;;;;5075189;28;20908;-85
2021/12/19 13:09:34;;;;;;;0.30;0.30;;;2.10;99.90;;;;;;5070192;28;20835;-85
2021/12/19 13:12:08;;;;;;;0.30;0.30;;;2.10;99.90;;;;;;5075270;28;20468;-85
2021/12/19 13:14:39;;;;;;;0.33;0.33;;;2.10;99.90;;;;;;5075170;28;20900;-85
2021/12/19 13:17:08;;;;;;;0.30;0.30;;;2.10;99.90;;;;;;5075414;28;20454;-85
2021/12/19 13:19:59;;;;;;;0.30;0.30;;;2.30;99.90;;;;;;5076135;28;20445;-84
2021/12/19 13:22:29;;;;;;;0.30;0.30;;;2.30;99.90;;;;;;5075181;28;21002;-85
2021/12/19 13:24:58;;;;;;;0.30;0.30;;;2.30;99.90;;;;;;5075189;28;20397;-85
2021/12/19 13:27:28;;;;;;;0.30;0.30;;;2.30;99.90;;;;;;5075602;28;20440;-85
2021/12/19 13:30:19;;;;;;;0.30;0.20;;;2.20;99.90;;;;;;5075297;28;20765;-82
2021/12/19 13:32:49;;;;;;;0.30;0.20;;;2.00;99.90;;;;;;5075083;28;20551;-85
2021/12/19 13:35:23;;;;;;;0.30;0.30;;;2.10;99.90;;;;;;5074662;28;20476;-85
2021/12/19 13:37:56;;;;;;;0.30;0.30;;;2.10;99.90;;;;;;5074823;28;20448;-85
2021/12/19 13:40:25;;;;;;;0.30;0.30;;;2.10;99.90;;;;;;5074617;28;20436;-85
2021/12/19 13:42:55;;;;;;;0.30;0.30;;;2.20;99.90;;;;;;5074621;28;20492;-85
2021/12/19 13:45:36;;;;;;;0.30;0.30;;;2.20;99.90;;;;;;5074822;28;20433;-85
2021/12/19 13:48:07;;;;;;;0.30;0.30;;;2.10;99.90;;;;;;5074669;28;20484;-85
2021/12/19 13:50:38;;;;;;;0.57;0.40;;;2.20;99.90;;;;;;5074576;28;20408;-85
2021/12/19 13:53:06;;;;;;;0.30;0.20;;;2.10;99.90;;;;;;5074659;28;20405;-85
2021/12/19 13:55:42;;;;;;;0.30;0.27;;;2.10;99.90;;;;;;5074668;28;20495;-85
2021/12/19 13:58:10;;;;;;;0.30;0.20;;;2.00;99.90;;;;;;5074411;28;20399;-85
2021/12/19 14:00:39;;;;;;;0.30;0.30;;;2.00;99.90;;;;;;5074587;28;20434;-85
2021/12/19 14:03:06;;;;;;;0.30;0.30;;;1.90;99.90;;;;;;5074513;28;20434;-85
2021/12/19 14:05:37;;;;;;;0.30;0.30;;;1.90;99.90;;;;;;5074597;28;20433;-85
2021/12/19 14:08:21;;;;;;;0.30;0.20;;;2.00;99.90;;;;;;5074401;28;20420;-85
2021/12/19 14:11:24;;;;;;;0.30;0.30;;;2.10;99.90;;;;;;5074430;28;20432;-85